Time;durP1;ratioP1;P1;durP2;ratioP2;P2;SDS_P1;SDS_P2;PMS_P1;PMS_P2;Temp;Humidity;BMP_temperature;BMP_pressure;BME280_temperature;BME280_humidity;BME280_pressure;Samples;Min_cycle;Max_cycle;Signal;HPM_P1;HPM_P2
2022/03/17 00:00:13;;;;;;;5.07;1.90;;;20.90;79.70;;;;;;5015252;27;97429;-65
2022/03/17 00:02:44;;;;;;;5.82;2.30;;;21.00;79.80;;;;;;5038443;27;102568;-65
2022/03/17 00:05:16;;;;;;;4.32;1.83;;;21.10;79.60;;;;;;5034830;27;96087;-64
2022/03/17 00:07:46;;;;;;;2.63;1.77;;;21.10;79.30;;;;;;5035839;27;95918;-64
2022/03/17 00:10:17;;;;;;;2.13;1.75;;;21.10;79.30;;;;;;5037175;27;96955;-66
2022/03/17 00:12:49;;;;;;;2.92;1.77;;;21.20;79.20;;;;;;5036387;27;98172;-64
2022/03/17 00:15:20;;;;;;;3.83;2.00;;;21.20;79.60;;;;;;5026013;27;96038;-67
2022/03/17 00:17:51;;;;;;;2.17;1.98;;;21.30;79.80;;;;;;5037590;27;95370;-62
2022/03/17 00:20:23;;;;;;;5.93;2.13;;;21.30;79.80;;;;;;5039941;27;95869;-65
2022/03/17 00:22:54;;;;;;;4.47;2.08;;;21.40;79.70;;;;;;5041712;27;95881;-63
2022/03/17 00:25:26;;;;;;;3.15;2.22;;;21.50;79.40;;;;;;5050798;27;99637;-64
2022/03/17 00:27:57;;;;;;;4.55;2.22;;;21.60;79.10;;;;;;5038150;27;95565;-63
2022/03/17 00:30:28;;;;;;;;;;;21.60;78.80;;;;;;5037638;27;95832;-62
2022/03/17 00:32:59;;;;;;;3.97;1.77;;;21.70;78.60;;;;;;5047379;27;103572;-63
2022/03/17 00:35:38;;;;;;;2.97;1.75;;;21.80;78.40;;;;;;5053649;27;96132;-64
2022/03/17 00:38:13;;;;;;;2.90;1.92;;;21.90;78.20;;;;;;5039641;27;95932;-67
2022/03/17 00:40:46;;;;;;;1.75;1.65;;;21.90;78.00;;;;;;5044410;27;96715;-65
2022/03/17 00:43:22;;;;;;;2.80;1.95;;;22.00;78.00;;;;;;5043404;27;96528;-67
2022/03/17 00:45:52;;;;;;;2.50;1.60;;;22.10;77.90;;;;;;5035460;27;97231;-65
2022/03/17 00:48:22;;;;;;;4.97;2.20;;;22.10;77.70;;;;;;5019672;27;95742;-65
2022/03/17 00:50:52;;;;;;;3.25;2.25;;;22.10;77.60;;;;;;5020332;27;98702;-65
2022/03/17 00:53:22;;;;;;;4.45;2.15;;;22.20;77.60;;;;;;5019518;27;95995;-65
2022/03/17 00:55:53;;;;;;;4.90;2.13;;;22.20;77.40;;;;;;5021753;27;95668;-68
2022/03/17 00:58:24;;;;;;;2.38;2.17;;;22.30;77.40;;;;;;5025008;27;95764;-62
2022/03/17 01:00:56;;;;;;;1.95;1.75;;;22.40;77.20;;;;;;5013667;27;97643;-63
2022/03/17 01:03:27;;;;;;;3.58;1.83;;;22.40;76.90;;;;;;5023810;27;95951;-65
2022/03/17 01:05:59;;;;;;;2.75;1.88;;;22.50;76.80;;;;;;5013528;27;95570;-65
2022/03/17 01:08:30;;;;;;;4.88;2.15;;;22.50;76.60;;;;;;5019699;27;95775;-66
2022/03/17 01:11:03;;;;;;;2.67;2.03;;;22.50;76.60;;;;;;5022830;27;98673;-65
2022/03/17 01:13:35;;;;;;;4.95;1.90;;;22.60;76.40;;;;;;5019516;27;95854;-65
2022/03/17 01:16:07;;;;;;;2.28;1.77;;;22.70;76.30;;;;;;5012749;27;97249;-64
2022/03/17 01:18:38;;;;;;;2.38;1.77;;;22.70;76.00;;;;;;5042802;27;95861;-64
2022/03/17 01:21:08;;;;;;;2.20;1.98;;;22.70;76.00;;;;;;5043552;27;95862;-63
2022/03/17 01:23:38;;;;;;;2.45;2.00;;;22.70;75.90;;;;;;5035137;27;95777;-63
2022/03/17 01:26:09;;;;;;;2.97;1.80;;;22.80;75.80;;;;;;5045686;27;95926;-64
2022/03/17 01:28:41;;;;;;;1.60;1.50;;;22.80;75.70;;;;;;5047582;27;95834;-64
2022/03/17 01:31:13;;;;;;;1.98;1.50;;;22.90;75.70;;;;;;5036043;27;96855;-64
2022/03/17 01:33:45;;;;;;;1.92;1.73;;;22.90;75.70;;;;;;5042964;27;95981;-63
2022/03/17 01:36:15;;;;;;;;;;;22.90;75.60;;;;;;5046334;27;95790;-63
2022/03/17 01:38:46;;;;;;;2.47;1.60;;;22.90;75.60;;;;;;5047864;27;95965;-64
2022/03/17 01:41:18;;;;;;;2.13;1.75;;;22.90;75.50;;;;;;5045843;27;95967;-62
2022/03/17 01:43:48;;;;;;;2.05;1.58;;;22.90;75.30;;;;;;5043019;27;95752;-62
2022/03/17 01:46:18;;;;;;;3.90;1.95;;;22.80;75.40;;;;;;5038209;27;98747;-63
2022/03/17 01:48:49;;;;;;;2.15;1.95;;;22.80;75.60;;;;;;5046365;27;95273;-60
2022/03/17 01:51:19;;;;;;;4.10;2.20;;;22.70;75.90;;;;;;5041229;27;98994;-63
2022/03/17 01:53:49;;;;;;;2.15;1.95;;;22.60;75.80;;;;;;5046450;27;95351;-66
2022/03/17 01:56:19;;;;;;;2.75;1.88;;;22.60;75.60;;;;;;5044489;27;95125;-63
2022/03/17 01:58:52;;;;;;;5.10;1.80;;;22.60;75.80;;;;;;5042532;27;95824;-63
2022/03/17 02:01:24;;;;;;;1.92;1.80;;;22.70;75.90;;;;;;5031052;27;95865;-65
2022/03/17 02:03:56;;;;;;;2.78;2.13;;;22.70;75.60;;;;;;5037071;27;95408;-64
2022/03/17 02:06:27;;;;;;;1.90;1.70;;;22.80;75.70;;;;;;5042267;27;95523;-64
2022/03/17 02:08:57;;;;;;;;;;;22.80;75.60;;;;;;5042609;27;96007;-65
2022/03/17 02:14:24;;;;;;;4.43;1.95;;;22.90;75.50;;;;;;5025357;27;96505;-64
2022/03/17 02:16:56;;;;;;;2.03;1.80;;;22.90;75.40;;;;;;5030385;27;97568;-62
2022/03/17 02:19:26;;;;;;;2.13;1.92;;;23.00;75.60;;;;;;5032449;27;95275;-63
2022/03/17 02:21:56;;;;;;;6.28;2.22;;;22.90;75.60;;;;;;5041798;27;96686;-61
2022/03/17 02:27:16;;;;;;;4.82;2.25;;;23.00;75.30;;;;;;5037676;27;95318;-59
2022/03/17 02:29:48;;;;;;;3.50;2.10;;;23.10;75.30;;;;;;5041752;27;95926;-64
2022/03/17 02:32:20;;;;;;;4.10;2.00;;;23.10;75.40;;;;;;5032548;27;95927;-63
2022/03/17 02:34:51;;;;;;;2.28;2.08;;;23.10;75.30;;;;;;5033284;27;95634;-61
2022/03/17 02:37:21;;;;;;;1.88;1.63;;;23.10;75.30;;;;;;5058804;27;95716;-64
2022/03/17 02:39:54;;;;;;;10.52;2.40;;;23.10;75.20;;;;;;5044380;27;95482;-62
2022/03/17 02:42:25;;;;;;;3.47;2.05;;;23.10;75.20;;;;;;5044258;27;95900;-62
2022/03/17 02:44:58;;;;;;;6.25;2.08;;;23.20;75.10;;;;;;5043497;27;96094;-66
2022/03/17 02:47:29;;;;;;;5.10;2.13;;;23.20;75.00;;;;;;5042480;27;95340;-64
2022/03/17 02:49:58;;;;;;;1.90;1.80;;;23.20;75.20;;;;;;5038338;27;95661;-61
2022/03/17 02:52:29;;;;;;;5.63;1.73;;;23.20;75.30;;;;;;5039607;27;96478;-63
2022/03/17 02:54:59;;;;;;;2.10;1.77;;;23.30;75.30;;;;;;5046061;27;96395;-64
2022/03/17 02:57:29;;;;;;;3.15;1.75;;;23.30;75.20;;;;;;5045234;27;95917;-68
2022/03/17 03:00:01;;;;;;;5.18;2.25;;;23.40;75.20;;;;;;5045509;27;95769;-66
2022/03/17 03:02:33;;;;;;;2.28;2.08;;;23.40;75.20;;;;;;5046455;27;96360;-62
2022/03/17 03:05:06;;;;;;;2.20;1.95;;;23.40;75.10;;;;;;5048832;27;95282;-64
2022/03/17 03:07:37;;;;;;;2.25;2.05;;;23.50;75.10;;;;;;5040889;27;95810;-65
2022/03/17 03:10:09;;;;;;;2.83;2.40;;;23.50;75.10;;;;;;5041351;27;96297;-59
2022/03/17 03:12:41;;;;;;;2.67;2.05;;;23.60;74.90;;;;;;5035621;27;97225;-64
2022/03/17 03:15:12;;;;;;;2.28;2.08;;;23.70;74.90;;;;;;5027949;27;96449;-65
2022/03/17 03:17:43;;;;;;;2.28;2.05;;;23.80;74.40;;;;;;5035322;27;95337;-63
2022/03/17 03:20:15;;;;;;;4.05;1.92;;;23.90;74.50;;;;;;5044864;27;95900;-63
2022/03/17 03:22:45;;;;;;;2.13;1.90;;;23.90;74.80;;;;;;5041409;27;97967;-64
2022/03/17 03:25:15;;;;;;;2.40;2.20;;;23.80;74.80;;;;;;5039625;27;95907;-66
2022/03/17 03:27:45;;;;;;;;;;;23.90;74.60;;;;;;5042107;27;95364;-66
2022/03/17 03:30:16;;;;;;;4.75;2.38;;;23.90;74.80;;;;;;5036280;27;95723;-66
2022/03/17 03:32:49;;;;;;;2.97;2.22;;;23.90;74.70;;;;;;5022389;27;102193;-65
2022/03/17 03:38:10;;;;;;;2.50;2.28;;;24.00;74.50;;;;;;5017100;28;95605;-67
2022/03/17 03:40:41;;;;;;;2.03;1.83;;;24.10;74.50;;;;;;5021726;27;96371;-64
2022/03/17 03:43:11;;;;;;;3.25;1.75;;;24.10;74.30;;;;;;5025258;27;96066;-65
2022/03/17 03:45:41;;;;;;;1.80;1.67;;;24.10;74.40;;;;;;5014094;27;95731;-66
2022/03/17 03:48:11;;;;;;;2.85;2.55;;;24.20;74.70;;;;;;5045314;27;95666;-64
2022/03/17 03:50:42;;;;;;;2.90;1.80;;;24.20;74.40;;;;;;5043473;27;95931;-68
2022/03/17 03:53:14;;;;;;;3.38;2.35;;;24.30;74.60;;;;;;5039176;27;97117;-64
2022/03/17 03:55:46;;;;;;;1.83;1.73;;;24.30;75.10;;;;;;5048290;27;97821;-65
2022/03/17 03:58:18;;;;;;;1.95;1.85;;;24.30;74.50;;;;;;5042346;27;95427;-68
2022/03/17 04:00:50;;;;;;;2.72;2.17;;;24.40;74.50;;;;;;5032400;27;96014;-64
2022/03/17 04:03:21;;;;;;;3.25;1.80;;;24.40;74.20;;;;;;5044122;27;95879;-66
2022/03/17 04:05:56;;;;;;;2.28;2.03;;;24.40;74.20;;;;;;5046415;27;95775;-64
2022/03/17 04:08:27;;;;;;;3.40;1.77;;;24.50;74.30;;;;;;5045663;27;95720;-64
2022/03/17 04:11:00;;;;;;;3.28;1.70;;;24.60;74.20;;;;;;5047749;27;95701;-63
2022/03/17 04:13:33;;;;;;;1.73;1.55;;;24.60;74.10;;;;;;5040736;27;96676;-66
2022/03/17 04:16:05;;;;;;;2.30;1.83;;;24.60;73.80;;;;;;5025465;27;97434;-64
2022/03/17 04:18:37;;;;;;;2.15;1.90;;;24.70;72.90;;;;;;5043573;27;95699;-67
2022/03/17 04:21:08;;;;;;;2.03;1.55;;;24.70;73.60;;;;;;5039681;27;95879;-63
2022/03/17 04:23:38;;;;;;;1.90;1.75;;;24.80;73.50;;;;;;5046683;27;96090;-63
2022/03/17 04:26:12;;;;;;;2.45;1.77;;;24.90;73.40;;;;;;5040897;27;95889;-65
2022/03/17 04:28:44;;;;;;;2.00;1.80;;;24.90;73.30;;;;;;5040717;27;97891;-68
2022/03/17 04:31:15;;;;;;;1.67;1.48;;;24.90;73.20;;;;;;5031929;27;97774;-67
2022/03/17 04:33:46;;;;;;;3.20;1.65;;;24.90;73.30;;;;;;5020106;28;96600;-68
2022/03/17 04:36:18;;;;;;;1.73;1.63;;;24.90;73.40;;;;;;5017300;27;96078;-68
2022/03/17 04:38:49;;;;;;;1.50;1.40;;;24.90;73.50;;;;;;5022555;27;96198;-62
2022/03/17 04:41:22;;;;;;;2.35;1.70;;;24.90;73.10;;;;;;5023933;27;95729;-63
2022/03/17 04:43:52;;;;;;;5.65;2.20;;;25.00;73.10;;;;;;5025953;27;96736;-64
2022/03/17 04:46:23;;;;;;;1.75;1.65;;;24.90;72.40;;;;;;5019075;27;95574;-64
2022/03/17 04:48:54;;;;;;;1.58;1.48;;;24.90;71.80;;;;;;5015659;27;95759;-63
2022/03/17 04:51:26;;;;;;;1.45;1.35;;;24.90;70.70;;;;;;5013345;27;95986;-65
2022/03/17 04:53:55;;;;;;;;;;;24.90;69.80;;;;;;5021934;27;96841;-62
2022/03/17 04:56:26;;;;;;;1.58;1.48;;;24.90;69.10;;;;;;5023753;27;96135;-62
2022/03/17 04:58:58;;;;;;;2.03;1.73;;;24.90;68.60;;;;;;5018616;27;95882;-62
2022/03/17 05:01:30;;;;;;;1.63;1.52;;;24.90;68.00;;;;;;5007751;27;95775;-62
2022/03/17 05:04:00;;;;;;;2.47;1.77;;;24.80;67.30;;;;;;5018492;27;95898;-62
2022/03/17 05:06:31;;;;;;;2.70;1.60;;;24.80;66.80;;;;;;5011769;27;95835;-63
2022/03/17 05:09:02;;;;;;;2.33;1.88;;;24.80;66.40;;;;;;5014870;27;96008;-61
2022/03/17 05:11:32;;;;;;;1.80;1.55;;;24.80;66.00;;;;;;5018097;27;95564;-62
2022/03/17 05:14:03;;;;;;;;;;;24.80;65.60;;;;;;5011993;27;96391;-61
2022/03/17 05:16:34;;;;;;;2.15;1.83;;;24.70;65.10;;;;;;5015596;27;95961;-61
2022/03/17 05:19:06;;;;;;;1.80;1.70;;;24.70;64.80;;;;;;5043831;27;95679;-62
2022/03/17 05:21:36;;;;;;;3.17;1.55;;;24.70;64.40;;;;;;5041089;27;95212;-63
2022/03/17 05:24:06;;;;;;;1.97;1.73;;;24.70;63.90;;;;;;5044094;27;95855;-63
2022/03/17 05:26:38;;;;;;;2.20;1.53;;;24.70;63.50;;;;;;5044834;27;95544;-63
2022/03/17 05:29:09;;;;;;;1.13;1.10;;;24.70;63.20;;;;;;5042714;27;96114;-63
2022/03/17 05:31:42;;;;;;;1.95;1.30;;;24.70;62.90;;;;;;5035134;27;95825;-62
2022/03/17 05:34:14;;;;;;;1.77;1.42;;;24.60;62.40;;;;;;5040131;27;96257;-64
2022/03/17 05:36:45;;;;;;;1.77;1.63;;;24.60;62.10;;;;;;5044935;27;95499;-64
2022/03/17 05:39:16;;;;;;;1.88;1.63;;;24.60;62.40;;;;;;5041940;27;95800;-63
2022/03/17 05:41:46;;;;;;;;;;;24.50;62.20;;;;;;5042861;27;98213;-65
2022/03/17 05:44:17;;;;;;;2.22;1.17;;;24.50;62.00;;;;;;5043159;27;96306;-63
2022/03/17 05:46:47;;;;;;;1.77;1.67;;;24.50;61.60;;;;;;5038383;27;95814;-65
2022/03/17 05:49:19;;;;;;;1.40;1.30;;;24.50;61.60;;;;;;5036182;27;95659;-64
2022/03/17 05:51:49;;;;;;;1.20;1.10;;;24.50;61.20;;;;;;5036694;27;95968;-66
2022/03/17 05:54:19;;;;;;;1.00;1.00;;;24.50;61.00;;;;;;5041541;27;95950;-64
2022/03/17 05:56:50;;;;;;;1.52;1.42;;;24.50;60.60;;;;;;5036236;27;95846;-64
2022/03/17 05:59:21;;;;;;;3.30;1.60;;;24.40;60.30;;;;;;5041805;27;95711;-64
2022/03/17 06:01:52;;;;;;;2.20;1.45;;;24.40;60.10;;;;;;5038107;27;96044;-63
2022/03/17 06:04:42;;;;;;;2.00;1.50;;;24.40;60.90;;;;;;5041494;27;96237;-65
2022/03/17 06:07:12;;;;;;;1.73;1.20;;;24.40;60.10;;;;;;5043569;27;96864;-64
2022/03/17 06:09:43;;;;;;;2.03;1.35;;;24.40;60.00;;;;;;5045925;27;95274;-63
2022/03/17 06:12:15;;;;;;;1.60;1.37;;;24.50;59.00;;;;;;5037033;27;95211;-64
2022/03/17 06:14:46;;;;;;;1.10;1.10;;;24.50;59.50;;;;;;5029390;27;96552;-63
2022/03/17 06:17:18;;;;;;;1.38;1.27;;;24.40;59.30;;;;;;5023037;27;96649;-61
2022/03/17 06:19:48;;;;;;;3.28;1.15;;;24.40;58.80;;;;;;5040001;27;95738;-62
2022/03/17 06:22:17;;;;;;;1.02;1.02;;;24.40;58.90;;;;;;5040032;27;96834;-63
2022/03/17 06:24:47;;;;;;;1.42;1.30;;;24.40;58.60;;;;;;5034861;27;96512;-64
2022/03/17 06:27:19;;;;;;;1.88;1.10;;;24.40;57.10;;;;;;5035813;27;95932;-64
2022/03/17 06:29:50;;;;;;;2.25;1.35;;;24.40;58.00;;;;;;5037643;27;95956;-62
2022/03/17 06:32:21;;;;;;;;;;;24.40;58.50;;;;;;5037962;27;96145;-63
2022/03/17 06:34:52;;;;;;;1.17;1.08;;;24.50;59.10;;;;;;5046611;27;96295;-63
2022/03/17 06:37:23;;;;;;;1.20;1.10;;;24.60;59.50;;;;;;5042247;27;95420;-63
2022/03/17 06:39:54;;;;;;;1.25;1.15;;;24.80;60.00;;;;;;5039023;27;96072;-63
2022/03/17 06:42:24;;;;;;;1.73;1.08;;;24.90;60.30;;;;;;5044320;27;95173;-63
2022/03/17 06:44:54;;;;;;;1.20;1.10;;;25.00;60.10;;;;;;5041108;27;96345;-63
2022/03/17 06:47:27;;;;;;;1.05;0.95;;;25.10;60.80;;;;;;5033329;27;95948;-63
2022/03/17 06:49:58;;;;;;;2.90;1.17;;;25.10;61.00;;;;;;5041245;27;95311;-62
2022/03/17 06:52:28;;;;;;;1.10;1.00;;;25.20;59.60;;;;;;5040505;27;95785;-64
2022/03/17 06:54:58;;;;;;;1.00;1.00;;;25.00;54.70;;;;;;5041980;27;97058;-62
2022/03/17 06:57:29;;;;;;;2.15;1.00;;;24.70;54.90;;;;;;5039693;27;95970;-62
2022/03/17 06:59:59;;;;;;;;;;;24.50;54.90;;;;;;5044038;27;95793;-63
2022/03/17 07:02:30;;;;;;;3.92;1.00;;;24.50;54.80;;;;;;5040655;27;95763;-62
2022/03/17 07:05:01;;;;;;;1.20;1.10;;;24.40;55.20;;;;;;5043344;27;95854;-62
2022/03/17 07:07:31;;;;;;;1.77;1.10;;;24.40;55.30;;;;;;5037470;27;95868;-63
2022/03/17 07:10:09;;;;;;;0.90;0.90;;;24.40;56.20;;;;;;5043363;27;95686;-63
2022/03/17 07:12:41;;;;;;;1.08;0.90;;;24.40;56.40;;;;;;5039241;27;95821;-63
2022/03/17 07:15:12;;;;;;;1.02;1.02;;;24.30;56.20;;;;;;5017361;27;95879;-63
2022/03/17 07:17:43;;;;;;;1.92;1.23;;;24.30;56.70;;;;;;5015999;27;102346;-61
2022/03/17 07:20:16;;;;;;;8.32;2.78;;;24.30;56.60;;;;;;5019886;27;97109;-62
2022/03/17 07:22:50;;;;;;;19.17;6.03;;;24.20;56.60;;;;;;5020154;28;95610;-62
2022/03/17 07:25:24;;;;;;;19.20;5.75;;;24.10;57.00;;;;;;5020603;27;96546;-61
2022/03/17 07:27:55;;;;;;;15.70;5.32;;;24.10;57.90;;;;;;5025701;27;95894;-62
2022/03/17 07:30:26;;;;;;;14.45;4.95;;;24.10;58.90;;;;;;5015811;27;95597;-62
2022/03/17 07:32:58;;;;;;;14.00;5.60;;;24.10;59.20;;;;;;5026336;27;98347;-61
2022/03/17 07:35:29;;;;;;;12.23;5.40;;;24.10;59.50;;;;;;5024868;27;96532;-61
2022/03/17 07:38:02;;;;;;;12.40;5.32;;;24.00;59.60;;;;;;5016516;27;95994;-62
2022/03/17 07:40:34;;;;;;;14.13;4.97;;;24.00;59.90;;;;;;5016932;27;95898;-59
2022/03/17 07:43:04;;;;;;;15.00;5.32;;;24.00;60.10;;;;;;5020608;27;95359;-60
2022/03/17 07:46:07;;;;;;;14.27;4.32;;;24.00;60.10;;;;;;5016437;27;98428;-62
2022/03/17 07:48:56;;;;;;;20.80;5.43;;;24.00;60.30;;;;;;5016065;27;95681;-62
2022/03/17 07:51:37;;;;;;;12.07;4.25;;;24.00;61.30;;;;;;5019846;27;95310;-61
2022/03/17 07:54:07;;;;;;;7.47;4.45;;;23.90;61.80;;;;;;5014573;27;96799;-61
2022/03/17 07:56:38;;;;;;;12.17;4.03;;;23.90;62.20;;;;;;5020425;27;96386;-61
2022/03/17 07:59:10;;;;;;;12.00;3.95;;;23.90;62.40;;;;;;5016188;27;95790;-61
2022/03/17 08:01:41;;;;;;;9.65;4.85;;;23.90;62.40;;;;;;5014073;27;96181;-61
2022/03/17 08:04:11;;;;;;;7.40;4.03;;;24.00;62.40;;;;;;5020221;27;96102;-60
2022/03/17 08:06:43;;;;;;;6.45;3.22;;;24.00;62.60;;;;;;5024908;27;95812;-62
2022/03/17 08:09:14;;;;;;;10.23;3.03;;;23.90;62.50;;;;;;5014300;27;96020;-61
2022/03/17 08:11:47;;;;;;;11.43;3.20;;;23.90;62.60;;;;;;5014981;27;96122;-61
2022/03/17 08:14:19;;;;;;;7.05;3.58;;;24.00;63.40;;;;;;5001961;27;96040;-61
2022/03/17 08:16:50;;;;;;;4.80;2.50;;;24.00;63.60;;;;;;5004159;27;97273;-61
2022/03/17 08:19:20;;;;;;;7.90;3.05;;;24.10;65.10;;;;;;5017628;27;96422;-63
2022/03/17 08:21:50;;;;;;;6.68;2.90;;;24.10;64.40;;;;;;5018711;27;95341;-61
2022/03/17 08:24:20;;;;;;;6.30;2.70;;;24.10;65.40;;;;;;5017496;27;95751;-62
2022/03/17 08:26:53;;;;;;;8.15;2.65;;;24.10;66.90;;;;;;5021558;27;95943;-64
2022/03/17 08:29:24;;;;;;;7.85;2.78;;;24.20;66.40;;;;;;5017414;27;96037;-60
2022/03/17 08:31:56;;;;;;;6.57;2.83;;;24.30;67.20;;;;;;5014460;27;98023;-59
2022/03/17 08:34:27;;;;;;;6.82;3.13;;;24.30;67.80;;;;;;5023689;27;97541;-62
2022/03/17 08:36:59;;;;;;;7.68;2.58;;;24.30;67.70;;;;;;5019806;27;95893;-58
2022/03/17 08:39:30;;;;;;;5.90;2.30;;;24.20;68.50;;;;;;5023496;27;96791;-63
2022/03/17 08:42:01;;;;;;;;;;;24.20;71.90;;;;;;5015799;27;96145;-60
2022/03/17 08:44:31;;;;;;;5.70;1.60;;;24.00;72.20;;;;;;5017040;27;95875;-63
2022/03/17 08:49:52;;;;;;;3.55;1.63;;;23.60;74.90;;;;;;5020749;27;95796;-58
2022/03/17 08:52:22;;;;;;;2.42;1.50;;;23.50;75.30;;;;;;5021346;27;95745;-60
2022/03/17 08:54:52;;;;;;;4.93;1.70;;;23.40;74.90;;;;;;5012087;27;95899;-63
2022/03/17 08:57:22;;;;;;;3.75;1.40;;;23.30;75.90;;;;;;5015743;27;95801;-63
2022/03/17 08:59:58;;;;;;;6.50;1.67;;;23.20;76.30;;;;;;5019961;27;96024;-59
2022/03/17 09:02:29;;;;;;;6.13;1.77;;;23.10;76.70;;;;;;5020678;27;96379;-63
2022/03/17 09:05:01;;;;;;;3.13;1.70;;;23.00;77.10;;;;;;5015998;27;95573;-63
2022/03/17 09:07:32;;;;;;;3.75;1.20;;;23.10;76.80;;;;;;5023279;27;95880;-64
2022/03/17 09:10:05;;;;;;;2.78;1.30;;;23.30;74.90;;;;;;5020214;27;96095;-64
2022/03/17 09:12:38;;;;;;;4.40;1.40;;;23.50;73.50;;;;;;5016130;27;96728;-64
2022/03/17 09:15:11;;;;;;;2.83;1.60;;;23.60;73.10;;;;;;4998219;27;95434;-64
2022/03/17 09:17:42;;;;;;;3.05;1.10;;;23.70;73.90;;;;;;5010755;27;102237;-64
2022/03/17 09:20:15;;;;;;;;;;;23.70;72.50;;;;;;5020680;27;96141;-61
2022/03/17 09:22:48;;;;;;;2.72;1.55;;;23.80;72.20;;;;;;5016348;27;96123;-64
2022/03/17 09:25:29;;;;;;;6.05;1.73;;;23.80;72.40;;;;;;5013255;27;95989;-65
2022/03/17 09:28:00;;;;;;;3.30;1.35;;;23.80;71.90;;;;;;5015757;27;95861;-64
2022/03/17 09:30:31;;;;;;;3.15;1.40;;;23.80;72.20;;;;;;5004237;27;96196;-65
2022/03/17 09:33:04;;;;;;;3.28;1.17;;;23.90;71.90;;;;;;5025756;27;95731;-64
2022/03/17 09:35:36;;;;;;;1.92;1.30;;;23.90;72.00;;;;;;5011671;27;95930;-64
2022/03/17 09:38:07;;;;;;;2.65;1.40;;;23.80;71.90;;;;;;5021424;27;96025;-61
2022/03/17 09:40:38;;;;;;;5.47;1.42;;;23.80;72.00;;;;;;5017104;28;95457;-61
2022/03/17 09:43:18;;;;;;;3.17;1.48;;;23.70;72.40;;;;;;5023830;27;95231;-64
2022/03/17 09:45:53;;;;;;;6.43;1.47;;;23.70;72.60;;;;;;5017213;27;95763;-65
2022/03/17 09:48:26;;;;;;;1.92;1.30;;;23.60;72.50;;;;;;5035460;27;95839;-64
2022/03/17 09:50:59;;;;;;;3.78;1.42;;;23.60;73.20;;;;;;5033133;27;95641;-62
2022/03/17 09:53:31;;;;;;;2.97;1.20;;;23.50;73.30;;;;;;5029710;27;95605;-63
2022/03/17 09:56:02;;;;;;;2.65;1.40;;;23.40;73.30;;;;;;5028677;27;95706;-68
2022/03/17 09:58:33;;;;;;;3.70;1.20;;;23.40;71.90;;;;;;5033542;27;97024;-66
2022/03/17 10:01:08;;;;;;;2.75;1.20;;;23.20;74.10;;;;;;5029252;27;96005;-61
2022/03/17 10:03:39;;;;;;;2.17;1.40;;;23.20;74.20;;;;;;5019135;27;95747;-67
2022/03/17 10:06:10;;;;;;;2.30;1.17;;;23.20;74.70;;;;;;5025465;27;95920;-67
2022/03/17 10:08:45;;;;;;;9.10;1.55;;;23.20;74.50;;;;;;5018180;27;96041;-67
2022/03/17 10:11:32;;;;;;;2.85;1.80;;;23.10;74.80;;;;;;5022344;27;95785;-61
2022/03/17 10:14:08;;;;;;;3.28;1.48;;;23.10;75.00;;;;;;5009057;27;98604;-60
2022/03/17 10:16:40;;;;;;;1.80;1.20;;;23.10;75.10;;;;;;5007357;27;100081;-59
2022/03/17 10:19:12;;;;;;;;;;;23.10;75.10;;;;;;5022339;27;96621;-60
2022/03/17 10:21:43;;;;;;;1.70;1.40;;;23.00;75.00;;;;;;5015509;27;96879;-62
2022/03/17 10:24:13;;;;;;;4.28;1.30;;;23.10;75.20;;;;;;5019652;27;95818;-61
2022/03/17 10:26:51;;;;;;;2.95;1.30;;;23.00;75.60;;;;;;5016043;27;96188;-61
2022/03/17 10:29:25;;;;;;;5.85;1.35;;;22.80;75.90;;;;;;5017111;27;96405;-67
2022/03/17 10:32:07;;;;;;;4.00;1.48;;;22.80;76.10;;;;;;5009758;27;96108;-60
2022/03/17 10:34:51;;;;;;;3.58;1.23;;;22.70;76.40;;;;;;5017099;27;95658;-61
2022/03/17 10:37:22;;;;;;;3.10;1.48;;;22.70;76.30;;;;;;5020522;27;95605;-66
2022/03/17 10:39:57;;;;;;;2.85;1.48;;;22.80;76.20;;;;;;5020427;27;95891;-61
2022/03/17 10:42:29;;;;;;;3.47;1.35;;;22.60;76.70;;;;;;5017960;27;98009;-67
2022/03/17 10:45:06;;;;;;;3.17;1.42;;;22.50;75.90;;;;;;5017214;27;95674;-61
2022/03/17 10:47:42;;;;;;;3.00;1.38;;;22.40;77.30;;;;;;5017226;27;95472;-66
2022/03/17 10:50:20;;;;;;;4.72;1.45;;;22.40;77.60;;;;;;5017445;27;95870;-62
2022/03/17 10:52:57;;;;;;;4.00;1.30;;;22.10;78.10;;;;;;5019451;27;95880;-61
2022/03/17 10:55:31;;;;;;;3.78;1.60;;;21.90;79.10;;;;;;5020725;27;95519;-65
2022/03/17 10:58:13;;;;;;;2.60;1.23;;;21.90;80.20;;;;;;5024050;27;95935;-61
2022/03/17 11:00:52;;;;;;;2.83;1.65;;;22.00;79.40;;;;;;5006598;27;97847;-61
2022/03/17 11:03:24;;;;;;;2.55;1.50;;;21.90;79.50;;;;;;5015356;27;98004;-61
2022/03/17 11:05:54;;;;;;;;;;;21.90;79.10;;;;;;5019094;27;95969;-61
2022/03/17 11:08:27;;;;;;;1.35;1.25;;;21.90;79.40;;;;;;5019778;27;95719;-61
2022/03/17 11:10:58;;;;;;;7.70;1.58;;;21.90;79.30;;;;;;5015521;27;96058;-61
2022/03/17 11:13:31;;;;;;;2.60;1.40;;;21.90;79.40;;;;;;5010130;27;95970;-61
2022/03/17 11:16:09;;;;;;;1.33;1.23;;;21.90;79.10;;;;;;5014361;27;96317;-69
2022/03/17 11:18:44;;;;;;;2.05;0.90;;;22.20;78.70;;;;;;5034850;27;95697;-68
2022/03/17 11:21:22;;;;;;;1.50;1.40;;;22.60;77.30;;;;;;5040826;27;96296;-66
2022/03/17 11:24:04;;;;;;;2.13;1.40;;;22.80;76.40;;;;;;5045569;27;96076;-65
2022/03/17 11:26:41;;;;;;;2.78;1.67;;;22.90;75.90;;;;;;5046448;27;95868;-64
2022/03/17 11:29:15;;;;;;;1.25;1.00;;;23.10;75.60;;;;;;5044557;27;95879;-64
2022/03/17 11:31:56;;;;;;;3.88;1.13;;;23.10;75.40;;;;;;5037774;27;95896;-64
2022/03/17 11:34:47;;;;;;;2.40;1.35;;;23.10;75.20;;;;;;5043357;27;95702;-64
2022/03/17 11:37:28;;;;;;;5.53;1.30;;;23.10;75.10;;;;;;5047873;27;97893;-62
2022/03/17 11:40:04;;;;;;;2.15;0.88;;;23.20;75.20;;;;;;5046018;27;95191;-65
2022/03/17 11:42:52;;;;;;;3.30;1.20;;;23.30;74.80;;;;;;5043689;27;95866;-62
2022/03/17 11:45:23;;;;;;;1.60;1.48;;;23.40;74.40;;;;;;5033496;27;95779;-62
2022/03/17 11:47:57;;;;;;;1.05;0.93;;;23.70;74.40;;;;;;5018678;28;95548;-65
2022/03/17 11:50:32;;;;;;;0.85;0.80;;;23.90;73.90;;;;;;5024791;27;95998;-66
2022/03/17 11:53:38;;;;;;;2.50;1.30;;;24.00;73.70;;;;;;5015710;28;95798;-63
2022/03/17 11:56:38;;;;;;;2.47;1.20;;;23.90;73.00;;;;;;5014873;27;95665;-63
2022/03/17 11:59:14;;;;;;;2.30;1.20;;;24.00;74.00;;;;;;5022959;28;96194;-65
2022/03/17 12:01:46;;;;;;;1.42;1.10;;;24.10;73.50;;;;;;5017878;28;98858;-61
2022/03/17 12:04:31;;;;;;;3.33;1.27;;;24.20;73.30;;;;;;5016501;28;96396;-63
2022/03/17 12:07:14;;;;;;;2.05;0.90;;;24.20;73.10;;;;;;5016170;27;95890;-66
2022/03/17 12:09:46;;;;;;;1.48;0.80;;;24.40;72.80;;;;;;5014975;28;95818;-64
2022/03/17 12:12:22;;;;;;;;;;;24.50;70.40;;;;;;5020015;27;96072;-65
2022/03/17 12:14:58;;;;;;;1.67;0.85;;;24.50;72.20;;;;;;5007456;28;96333;-63
2022/03/17 12:17:30;;;;;;;1.52;1.00;;;24.70;71.70;;;;;;5038469;27;99495;-64
2022/03/17 12:20:19;;;;;;;1.00;0.85;;;24.90;70.90;;;;;;5041440;27;95288;-65
2022/03/17 12:22:50;;;;;;;1.10;1.00;;;25.10;70.60;;;;;;5045998;27;95646;-65
2022/03/17 12:25:26;;;;;;;1.33;0.88;;;25.20;70.20;;;;;;5042130;27;96200;-66
2022/03/17 12:28:04;;;;;;;1.20;0.95;;;25.30;70.00;;;;;;5048286;27;95298;-66
2022/03/17 12:30:34;;;;;;;1.73;1.15;;;25.40;69.50;;;;;;5037124;27;96421;-63
2022/03/17 12:33:06;;;;;;;1.33;1.00;;;25.30;68.50;;;;;;5041692;27;95761;-63
2022/03/17 12:35:39;;;;;;;1.50;1.10;;;25.00;68.80;;;;;;5034809;27;96582;-62
2022/03/17 12:38:11;;;;;;;5.00;1.52;;;24.70;68.80;;;;;;5036460;27;96571;-62
2022/03/17 12:40:43;;;;;;;0.80;0.80;;;24.40;69.50;;;;;;5045884;27;95802;-62
2022/03/17 12:43:15;;;;;;;1.88;1.00;;;24.40;70.10;;;;;;5044476;27;95785;-61
2022/03/17 12:45:56;;;;;;;1.38;1.00;;;24.50;69.70;;;;;;5049042;27;97345;-63
2022/03/17 12:48:28;;;;;;;1.25;0.85;;;24.40;69.70;;;;;;5044408;27;95864;-64
2022/03/17 12:51:05;;;;;;;1.45;0.85;;;24.50;69.80;;;;;;5042761;27;95843;-63
2022/03/17 12:53:40;;;;;;;2.08;1.33;;;24.50;69.60;;;;;;5045586;27;95978;-62
2022/03/17 12:56:11;;;;;;;1.35;1.00;;;24.30;69.90;;;;;;5048770;27;96706;-67
2022/03/17 12:58:43;;;;;;;2.88;0.98;;;24.30;70.20;;;;;;5053565;27;96023;-64
2022/03/17 13:01:14;;;;;;;2.10;1.05;;;24.20;70.40;;;;;;5031335;27;97465;-62
2022/03/17 13:03:45;;;;;;;2.00;1.00;;;24.10;70.70;;;;;;5045951;27;96035;-63
2022/03/17 13:09:12;;;;;;;1.35;1.20;;;23.90;71.30;;;;;;5042291;27;95892;-63
2022/03/17 13:14:32;;;;;;;2.45;1.20;;;23.60;71.80;;;;;;5033017;27;95956;-63
2022/03/17 13:17:07;;;;;;;1.55;1.02;;;23.70;71.90;;;;;;5035936;27;95825;-63
2022/03/17 13:19:50;;;;;;;2.85;1.05;;;23.60;71.80;;;;;;5048567;27;97046;-63
2022/03/17 13:22:32;;;;;;;1.90;1.13;;;23.60;71.90;;;;;;5045794;27;96109;-63
2022/03/17 13:25:16;;;;;;;1.35;1.17;;;23.50;72.30;;;;;;5043810;27;95762;-63
2022/03/17 13:28:07;;;;;;;2.33;1.00;;;23.40;68.40;;;;;;5048691;27;95996;-64
2022/03/17 13:30:37;;;;;;;;;;;23.40;72.80;;;;;;5053659;27;95635;-63
2022/03/17 13:33:12;;;;;;;1.35;1.02;;;23.30;73.00;;;;;;5042364;27;95712;-63
2022/03/17 13:35:48;;;;;;;1.13;1.05;;;23.20;73.10;;;;;;5048425;27;95345;-62